METAR Data
IDs: Format: Raw Decoded Include TAF

Data at: 1430 UTC 10 Jul 2020

KSVC 101415Z AUTO 31010KT 10SM CLR 29/06 A3022 RMK AO2 T02890057